Time;durP1;ratioP1;P1;durP2;ratioP2;P2;SDS_P1;SDS_P2;PMS_P1;PMS_P2;Temp;Humidity;BMP_temperature;BMP_pressure;BME280_temperature;BME280_humidity;BME280_pressure;Samples;Min_cycle;Max_cycle;Signal;HPM_P1;HPM_P2
2023/03/25 00:01:36;;;;;;;10.93;2.20;;;11.30;99.90;;;;;;5113638;28;20050;-76
2023/03/25 00:04:08;;;;;;;10.65;2.72;;;11.20;99.90;;;;;;5071656;28;20031;-76
2023/03/25 00:06:34;;;;;;;14.35;2.80;;;11.80;99.90;;;;;;5112822;28;20039;-76
2023/03/25 00:09:01;;;;;;;8.70;2.78;;;11.30;99.90;;;;;;5076685;27;20146;-78
2023/03/25 00:11:27;;;;;;;9.32;1.98;;;11.30;99.90;;;;;;5100617;28;20031;-79
2023/03/25 00:13:53;;;;;;;11.13;2.25;;;11.30;99.90;;;;;;5080001;28;20028;-76
2023/03/25 00:16:22;;;;;;;9.13;1.88;;;11.30;99.90;;;;;;5069271;28;20108;-76
2023/03/25 00:18:50;;;;;;;14.50;2.45;;;11.30;99.90;;;;;;5094371;28;20345;-76
2023/03/25 00:21:22;;;;;;;7.82;1.70;;;11.20;99.90;;;;;;5090590;28;20027;-76
2023/03/25 00:24:26;;;;;;;11.25;2.55;;;11.30;99.90;;;;;;5089618;28;20047;-76
2023/03/25 00:26:53;;;;;;;10.32;2.38;;;10.50;99.90;;;;;;5098051;28;20032;-75
2023/03/25 00:29:19;;;;;;;11.30;2.30;;;11.40;99.90;;;;;;5110185;28;20318;-77
2023/03/25 00:35:32;;;;;;;14.02;3.13;;;11.10;99.90;;;;;;5127037;27;20072;-76
2023/03/25 00:37:59;;;;;;;9.90;2.63;;;11.40;99.90;;;;;;5082491;28;20284;-75
2023/03/25 00:40:33;;;;;;;11.18;2.47;;;11.10;99.90;;;;;;5078206;28;20237;-76
2023/03/25 00:43:00;;;;;;;13.23;2.65;;;10.90;99.90;;;;;;5074865;28;20311;-75
2023/03/25 00:45:26;;;;;;;10.50;2.15;;;11.00;99.90;;;;;;5077547;28;20094;-79
2023/03/25 00:47:56;;;;;;;10.70;2.35;;;11.00;99.90;;;;;;5068573;28;20035;-77
2023/03/25 00:50:23;;;;;;;10.43;2.80;;;10.90;99.90;;;;;;5086677;27;20064;-77
2023/03/25 00:52:50;;;;;;;8.07;2.42;;;11.10;99.90;;;;;;5095341;28;20113;-75
2023/03/25 00:55:16;;;;;;;11.98;2.00;;;10.90;99.90;;;;;;5090896;28;20076;-76
2023/03/25 01:01:28;;;;;;;11.60;2.95;;;10.80;99.90;;;;;;5065994;27;20058;-77
2023/03/25 01:03:57;;;;;;;11.32;3.15;;;10.90;99.90;;;;;;5118109;28;20224;-76
2023/03/25 01:06:27;;;;;;;16.33;2.80;;;10.60;99.90;;;;;;5111168;28;20274;-75
2023/03/25 01:08:55;;;;;;;14.23;2.20;;;10.80;99.90;;;;;;5069842;28;20367;-76
2023/03/25 01:11:33;;;;;;;11.38;2.22;;;10.70;99.90;;;;;;5083335;28;20058;-76
2023/03/25 01:14:00;;;;;;;12.70;2.00;;;10.60;99.90;;;;;;5082227;28;20085;-75
2023/03/25 01:16:28;;;;;;;14.30;2.47;;;10.60;99.90;;;;;;5076091;28;20537;-76
2023/03/25 01:18:55;;;;;;;11.65;2.15;;;10.70;99.90;;;;;;5082071;28;20120;-75
2023/03/25 01:21:26;;;;;;;17.42;4.10;;;10.70;99.90;;;;;;5062830;28;20135;-75
2023/03/25 01:24:12;;;;;;;11.52;2.55;;;10.60;99.90;;;;;;5096214;28;20042;-76
2023/03/25 01:26:40;;;;;;;10.20;2.17;;;10.60;99.90;;;;;;5079278;28;20314;-76
2023/03/25 01:29:06;;;;;;;14.93;2.63;;;10.60;99.90;;;;;;5093950;28;20252;-75
2023/03/25 01:31:32;;;;;;;12.95;2.85;;;10.20;99.90;;;;;;5087535;28;20054;-76
2023/03/25 01:33:58;;;;;;;16.83;3.35;;;10.20;99.90;;;;;;5088225;28;20032;-75
2023/03/25 01:36:28;;;;;;;14.15;2.70;;;10.50;99.90;;;;;;5067552;28;20239;-75
2023/03/25 01:39:00;;;;;;;13.98;2.88;;;10.40;99.90;;;;;;5116654;27;20069;-75
2023/03/25 01:41:28;;;;;;;15.80;2.58;;;10.20;99.90;;;;;;5082003;28;20027;-74
2023/03/25 01:44:05;;;;;;;15.88;3.63;;;10.50;99.90;;;;;;5097819;28;20048;-74
2023/03/25 01:46:31;;;;;;;12.60;2.60;;;10.30;99.90;;;;;;5094657;28;20048;-74
2023/03/25 01:49:00;;;;;;;22.33;3.95;;;10.20;99.90;;;;;;5103553;28;20098;-75
2023/03/25 01:51:33;;;;;;;15.13;3.60;;;10.10;99.90;;;;;;5086440;28;20271;-75
2023/03/25 01:55:33;;;;;;;14.63;2.72;;;10.10;99.90;;;;;;5101469;28;20088;-75
2023/03/25 01:57:54;;;;;;;16.33;3.33;;;10.20;99.90;;;;;;5030563;28;20046;-75
2023/03/25 02:00:20;;;;;;;17.75;3.17;;;10.40;99.90;;;;;;5054671;28;20362;-75
2023/03/25 02:02:49;;;;;;;19.48;3.03;;;10.50;99.90;;;;;;5100729;28;20028;-75
2023/03/25 02:05:24;;;;;;;25.08;3.17;;;10.10;99.90;;;;;;5069537;28;20623;-75
2023/03/25 02:07:51;;;;;;;17.85;3.50;;;10.30;99.90;;;;;;5087816;28;20200;-75
2023/03/25 02:10:20;;;;;;;14.60;2.70;;;10.10;99.90;;;;;;5060935;28;20031;-76
2023/03/25 02:12:46;;;;;;;16.10;2.70;;;10.20;99.90;;;;;;5082059;28;20036;-76
2023/03/25 02:15:13;;;;;;;17.25;3.08;;;10.20;99.90;;;;;;5072723;28;20032;-76
2023/03/25 02:18:10;;;;;;;15.25;2.70;;;10.40;99.90;;;;;;5062304;28;20082;-76
2023/03/25 02:21:27;;;;;;;22.20;4.25;;;10.20;99.90;;;;;;5071583;28;20102;-76
2023/03/25 02:24:15;;;;;;;16.15;2.90;;;10.10;99.90;;;;;;5082351;28;20043;-76
2023/03/25 02:27:27;;;;;;;14.05;3.15;;;10.50;99.90;;;;;;5079963;28;20259;-77
2023/03/25 02:30:14;;;;;;;15.98;3.80;;;10.70;99.90;;;;;;5080204;28;20267;-77
2023/03/25 02:33:01;;;;;;;18.40;3.80;;;9.90;99.90;;;;;;5082575;28;20250;-76
2023/03/25 02:35:58;;;;;;;20.65;4.18;;;10.70;99.90;;;;;;5108942;28;20043;-76
2023/03/25 02:38:42;;;;;;;14.82;3.47;;;10.50;99.90;;;;;;5096084;28;20047;-74
2023/03/25 02:41:34;;;;;;;21.55;3.63;;;9.90;99.90;;;;;;5086401;28;20039;-76
2023/03/25 02:44:06;;;;;;;19.63;3.75;;;10.00;99.90;;;;;;5083046;28;20024;-74
2023/03/25 02:46:33;;;;;;;17.90;4.05;;;10.50;99.90;;;;;;5081844;28;20069;-75
2023/03/25 02:49:13;;;;;;;18.73;3.55;;;10.70;99.90;;;;;;5112657;28;20036;-75
2023/03/25 02:51:54;;;;;;;19.95;4.03;;;10.10;99.90;;;;;;5095928;28;20042;-75
2023/03/25 02:54:22;;;;;;;18.63;3.10;;;10.60;99.90;;;;;;5080700;28;20040;-76
2023/03/25 02:56:50;;;;;;;23.40;4.45;;;10.60;99.90;;;;;;5092830;28;20450;-74
2023/03/25 02:59:18;;;;;;;23.35;4.00;;;10.10;99.90;;;;;;5071085;28;20108;-75
2023/03/25 03:01:49;;;;;;;24.48;4.57;;;10.80;99.90;;;;;;5103893;28;20024;-75
2023/03/25 03:04:15;;;;;;;22.50;4.35;;;10.10;99.90;;;;;;5098141;28;20044;-75
2023/03/25 03:06:42;;;;;;;19.20;3.53;;;10.50;99.90;;;;;;5078757;28;20044;-77
2023/03/25 03:09:24;;;;;;;22.98;3.70;;;10.30;99.90;;;;;;5071090;28;20032;-74
2023/03/25 03:12:18;;;;;;;19.23;4.68;;;10.20;99.90;;;;;;5080388;28;20051;-76
2023/03/25 03:15:17;;;;;;;21.42;3.40;;;10.50;99.90;;;;;;5090751;28;20039;-74
2023/03/25 03:18:05;;;;;;;16.70;3.78;;;10.70;99.90;;;;;;5065176;28;20356;-77
2023/03/25 03:20:54;;;;;;;19.90;3.25;;;10.70;99.90;;;;;;5070968;28;20032;-76
2023/03/25 03:23:25;;;;;;;18.63;3.72;;;10.40;99.90;;;;;;5095351;28;20192;-75
2023/03/25 03:26:04;;;;;;;27.73;3.80;;;10.40;99.90;;;;;;5096575;28;20035;-76
2023/03/25 03:28:47;;;;;;;21.40;3.97;;;10.40;99.90;;;;;;5078579;28;20059;-77
2023/03/25 03:31:44;;;;;;;17.52;3.25;;;10.30;99.90;;;;;;5083385;28;20040;-79
2023/03/25 03:34:43;;;;;;;13.98;3.03;;;10.20;99.90;;;;;;5065745;28;20335;-76
2023/03/25 03:37:13;;;;;;;15.18;3.25;;;10.10;99.90;;;;;;5074230;28;20041;-76
2023/03/25 03:39:40;;;;;;;16.80;3.40;;;10.60;99.90;;;;;;5075640;28;20027;-75
2023/03/25 03:42:27;;;;;;;21.45;3.58;;;10.30;99.90;;;;;;5092151;28;20307;-74
2023/03/25 03:45:00;;;;;;;18.75;3.15;;;10.70;99.90;;;;;;5075423;28;20195;-75
2023/03/25 03:47:32;;;;;;;19.67;3.22;;;10.60;99.90;;;;;;5119157;27;20067;-74
2023/03/25 03:50:03;;;;;;;18.88;2.88;;;10.70;99.90;;;;;;5102419;28;20027;-75
2023/03/25 03:52:41;;;;;;;11.50;2.30;;;10.10;99.90;;;;;;5107377;28;20374;-77
2023/03/25 03:55:13;;;;;;;15.10;3.28;;;10.60;99.90;;;;;;5076492;28;20028;-76
2023/03/25 03:57:56;;;;;;;18.48;3.13;;;10.70;99.90;;;;;;5076043;28;20043;-74
2023/03/25 04:00:27;;;;;;;18.23;3.95;;;10.70;99.90;;;;;;5090182;28;20066;-75
2023/03/25 04:03:00;;;;;;;18.67;3.50;;;10.00;99.90;;;;;;5100219;28;20027;-76
2023/03/25 04:05:29;;;;;;;16.20;3.30;;;10.50;99.90;;;;;;5090639;28;20315;-78
2023/03/25 04:08:32;;;;;;;17.25;3.00;;;10.60;99.90;;;;;;5086994;28;20103;-76
2023/03/25 04:11:04;;;;;;;17.13;2.90;;;11.10;99.90;;;;;;5078054;28;20322;-75
2023/03/25 04:13:39;;;;;;;20.63;3.30;;;10.70;99.90;;;;;;5082066;28;20042;-77
2023/03/25 04:16:06;;;;;;;18.58;3.40;;;10.40;99.90;;;;;;5079123;28;20035;-77
2023/03/25 04:18:32;;;;;;;21.25;3.70;;;9.80;99.90;;;;;;5074981;28;20073;-75
2023/03/25 04:20:59;;;;;;;16.65;3.55;;;9.80;99.90;;;;;;5083985;28;20035;-76
2023/03/25 04:23:28;;;;;;;22.15;4.63;;;10.70;99.90;;;;;;5100628;28;20050;-78
2023/03/25 04:25:55;;;;;;;16.55;3.22;;;9.90;99.90;;;;;;5084542;28;20302;-77
2023/03/25 04:29:21;;;;;;;22.98;3.97;;;10.00;99.90;;;;;;5079154;28;20046;-75
2023/03/25 04:31:48;;;;;;;22.30;4.05;;;9.90;99.90;;;;;;5057460;28;20032;-77
2023/03/25 04:34:21;;;;;;;17.27;3.42;;;9.80;99.90;;;;;;5076266;28;20275;-77
2023/03/25 04:36:48;;;;;;;20.75;4.00;;;9.90;99.90;;;;;;5103846;28;20036;-73
2023/03/25 04:39:21;;;;;;;20.17;3.17;;;10.60;99.90;;;;;;5119511;27;20023;-74
2023/03/25 04:41:48;;;;;;;14.90;3.10;;;10.60;99.90;;;;;;5078299;28;20039;-77
2023/03/25 04:44:15;;;;;;;22.17;3.70;;;9.90;99.90;;;;;;5074278;28;20043;-75
2023/03/25 04:46:42;;;;;;;21.98;3.50;;;9.90;99.90;;;;;;5088607;28;20064;-74
2023/03/25 04:49:17;;;;;;;18.63;3.78;;;10.70;99.90;;;;;;5088372;28;20205;-76
2023/03/25 04:51:51;;;;;;;14.82;3.92;;;10.30;99.90;;;;;;5068496;28;20039;-76
2023/03/25 04:54:18;;;;;;;17.00;4.63;;;10.70;99.90;;;;;;5055150;28;20031;-75
2023/03/25 04:56:46;;;;;;;20.00;4.15;;;9.80;99.90;;;;;;5074150;28;20040;-76
2023/03/25 04:59:12;;;;;;;17.35;3.67;;;10.00;99.90;;;;;;5076884;28;20072;-76
2023/03/25 05:01:41;;;;;;;15.77;3.67;;;10.10;99.90;;;;;;5071955;28;20023;-74
2023/03/25 05:04:11;;;;;;;18.05;4.28;;;9.80;99.90;;;;;;5070415;28;20028;-74
2023/03/25 05:06:42;;;;;;;18.60;3.83;;;9.60;99.90;;;;;;5120992;27;20050;-75
2023/03/25 05:09:11;;;;;;;14.50;3.95;;;10.70;99.90;;;;;;5110311;28;20035;-75
2023/03/25 05:11:38;;;;;;;20.02;3.78;;;10.50;99.90;;;;;;5084969;28;20028;-75
2023/03/25 05:14:15;;;;;;;16.25;3.75;;;9.80;99.90;;;;;;5098307;28;20217;-76
2023/03/25 05:16:42;;;;;;;13.77;3.10;;;10.60;99.90;;;;;;5105234;27;20031;-76
2023/03/25 05:19:08;;;;;;;19.75;3.70;;;9.60;99.90;;;;;;5070720;28;20346;-73
2023/03/25 05:21:39;;;;;;;11.77;3.30;;;10.80;99.90;;;;;;5074383;28;20024;-74
2023/03/25 05:24:09;;;;;;;17.27;4.18;;;10.60;99.90;;;;;;5070285;28;20027;-76
2023/03/25 05:26:36;;;;;;;21.38;4.05;;;10.70;99.90;;;;;;5085594;28;20042;-75
2023/03/25 05:29:08;;;;;;;12.57;3.13;;;11.00;99.90;;;;;;5067445;28;20310;-76
2023/03/25 05:31:34;;;;;;;13.82;3.60;;;10.10;99.90;;;;;;5085514;28;20258;-74
2023/03/25 05:34:00;;;;;;;18.08;3.35;;;9.60;99.90;;;;;;5083318;28;20035;-75
2023/03/25 05:36:26;;;;;;;17.83;3.28;;;11.10;99.90;;;;;;5076302;28;20058;-77
2023/03/25 05:38:53;;;;;;;23.48;3.50;;;10.00;99.90;;;;;;5076170;28;20028;-74
2023/03/25 05:41:21;;;;;;;16.77;3.10;;;10.60;99.90;;;;;;5084915;28;20028;-77
2023/03/25 05:43:49;;;;;;;17.20;3.97;;;9.70;99.90;;;;;;5095785;28;20043;-75
2023/03/25 05:46:21;;;;;;;16.67;3.00;;;10.40;99.90;;;;;;5083109;28;20215;-75
2023/03/25 05:48:47;;;;;;;19.42;2.95;;;10.70;99.90;;;;;;5075932;28;20243;-75
2023/03/25 05:51:16;;;;;;;18.65;3.78;;;10.00;99.90;;;;;;5086983;28;20073;-78
2023/03/25 05:53:49;;;;;;;18.00;3.65;;;10.00;99.90;;;;;;5097449;28;20035;-74
2023/03/25 05:56:19;;;;;;;22.80;3.65;;;10.60;99.90;;;;;;5070808;28;20028;-74
2023/03/25 05:58:47;;;;;;;24.20;3.70;;;11.10;99.90;;;;;;5091487;28;20063;-75
2023/03/25 06:01:40;;;;;;;18.67;4.15;;;10.90;99.90;;;;;;5064105;28;20069;-74
2023/03/25 06:04:49;;;;;;;21.48;3.92;;;11.90;99.90;;;;;;5083968;28;20330;-75
2023/03/25 06:11:00;;;;;;;19.17;3.78;;;10.80;99.90;;;;;;5079566;28;20400;-73
2023/03/25 06:13:27;;;;;;;22.90;4.10;;;10.40;99.90;;;;;;5100465;28;20105;-75
2023/03/25 06:19:39;;;;;;;25.90;3.78;;;10.60;99.90;;;;;;5030252;28;20128;-74
2023/03/25 06:23:12;;;;;;;19.67;3.83;;;10.50;99.90;;;;;;4990382;28;20276;-71
2023/03/25 06:25:25;;;;;;;15.48;4.63;;;10.40;99.90;;;;;;5004071;28;20268;-76
2023/03/25 06:27:51;;;;;;;23.83;3.97;;;10.70;99.90;;;;;;5016069;28;20030;-76
2023/03/25 06:30:19;;;;;;;19.80;3.53;;;10.40;99.90;;;;;;5061121;28;20039;-75
2023/03/25 06:32:51;;;;;;;20.02;3.95;;;10.40;99.90;;;;;;5095188;28;20088;-74
2023/03/25 06:35:21;;;;;;;20.27;3.60;;;10.30;99.90;;;;;;5089691;28;20067;-73
2023/03/25 06:37:48;;;;;;;19.98;3.38;;;10.30;99.90;;;;;;5085708;28;20035;-72
2023/03/25 06:40:17;;;;;;;16.10;3.15;;;10.40;99.90;;;;;;5073926;28;20088;-76
2023/03/25 06:42:43;;;;;;;14.70;3.17;;;11.10;99.90;;;;;;5093908;28;20058;-73
2023/03/25 06:45:09;;;;;;;15.63;3.53;;;11.10;99.90;;;;;;5096142;28;20368;-74
2023/03/25 06:47:35;;;;;;;19.92;3.88;;;11.00;99.90;;;;;;5088115;28;20314;-75
2023/03/25 06:50:00;;;;;;;15.52;3.25;;;10.90;99.90;;;;;;5074111;28;20132;-74
2023/03/25 06:52:26;;;;;;;17.30;3.50;;;10.40;99.90;;;;;;5099089;28;20276;-75
2023/03/25 06:54:53;;;;;;;18.00;3.65;;;10.50;99.90;;;;;;5052544;28;20040;-74
2023/03/25 06:57:19;;;;;;;15.00;3.72;;;10.50;99.90;;;;;;5070604;28;20032;-71
2023/03/25 06:59:46;;;;;;;19.40;3.60;;;10.80;99.90;;;;;;5101014;27;20042;-75
2023/03/25 07:02:12;;;;;;;15.65;3.25;;;10.80;99.90;;;;;;5090351;28;20066;-74
2023/03/25 07:04:38;;;;;;;17.02;3.97;;;10.50;99.90;;;;;;5086716;28;20031;-73
2023/03/25 07:07:04;;;;;;;15.35;3.17;;;10.90;99.90;;;;;;5085164;27;20024;-75
2023/03/25 07:09:30;;;;;;;25.45;4.72;;;11.00;99.90;;;;;;5088126;28;20073;-73
2023/03/25 07:11:59;;;;;;;14.93;2.65;;;11.10;99.90;;;;;;5132706;27;20038;-75
2023/03/25 07:14:24;;;;;;;15.77;2.45;;;10.90;99.90;;;;;;5104176;28;20035;-74
2023/03/25 07:16:50;;;;;;;19.30;3.10;;;10.60;99.90;;;;;;5114971;28;20066;-75
2023/03/25 07:19:18;;;;;;;14.90;2.83;;;11.10;99.90;;;;;;5068473;28;20034;-73
2023/03/25 07:21:44;;;;;;;16.90;3.80;;;10.70;99.90;;;;;;5096379;28;20028;-75
2023/03/25 07:24:10;;;;;;;16.50;3.28;;;10.80;99.90;;;;;;5082592;28;20028;-74
2023/03/25 07:26:35;;;;;;;17.83;3.38;;;11.00;99.90;;;;;;5083760;28;20124;-72
2023/03/25 07:29:02;;;;;;;17.88;2.85;;;11.10;99.90;;;;;;5099951;28;20044;-74
2023/03/25 07:31:28;;;;;;;15.25;3.53;;;11.60;99.90;;;;;;5084071;28;20118;-77
2023/03/25 07:33:54;;;;;;;17.70;4.57;;;11.40;99.90;;;;;;5085335;28;20028;-79
2023/03/25 07:36:20;;;;;;;16.48;3.15;;;11.10;99.90;;;;;;5085749;28;20154;-75
2023/03/25 07:38:46;;;;;;;16.73;3.30;;;11.50;99.90;;;;;;5084766;28;20063;-75
2023/03/25 07:41:13;;;;;;;15.05;3.17;;;10.90;99.90;;;;;;5105896;28;20043;-74
2023/03/25 07:43:39;;;;;;;19.40;3.88;;;11.30;99.90;;;;;;5061411;28;20095;-74
2023/03/25 07:46:05;;;;;;;16.73;4.25;;;11.20;99.90;;;;;;5089382;28;20052;-73
2023/03/25 07:48:35;;;;;;;8.55;2.50;;;10.70;99.90;;;;;;5083923;28;20047;-75
2023/03/25 07:51:04;;;;;;;12.40;2.72;;;10.60;99.90;;;;;;5080882;28;20036;-73
2023/03/25 07:53:30;;;;;;;10.95;2.72;;;10.60;99.90;;;;;;5080913;28;20035;-73
2023/03/25 07:55:56;;;;;;;12.15;2.95;;;10.60;99.90;;;;;;5115990;28;20095;-73
2023/03/25 07:58:25;;;;;;;16.42;2.95;;;11.00;99.90;;;;;;5046144;28;20413;-74
2023/03/25 08:00:51;;;;;;;12.98;2.42;;;10.50;99.90;;;;;;5077043;28;20021;-73
2023/03/25 08:03:16;;;;;;;11.50;2.30;;;11.00;99.90;;;;;;5072766;28;20300;-75
2023/03/25 08:05:45;;;;;;;11.32;2.20;;;10.50;99.90;;;;;;5099544;28;20032;-76
2023/03/25 08:08:37;;;;;;;9.07;3.38;;;10.10;99.90;;;;;;5095050;28;20254;-76
2023/03/25 08:14:37;;;;;;;13.95;3.03;;;10.90;99.90;;;;;;5047627;28;20032;-76
2023/03/25 08:17:05;;;;;;;13.85;3.03;;;10.60;99.90;;;;;;5080484;28;20036;-73
2023/03/25 08:20:12;;;;;;;12.48;2.38;;;10.60;99.90;;;;;;5087317;28;20032;-76
2023/03/25 08:26:07;;;;;;;11.68;3.13;;;10.30;99.90;;;;;;4961443;28;20034;-75
2023/03/25 08:28:44;;;;;;;13.15;2.33;;;10.60;99.90;;;;;;5066003;28;20047;-76
2023/03/25 08:31:34;;;;;;;10.43;2.65;;;10.00;99.90;;;;;;5062833;28;20032;-72
2023/03/25 08:34:26;;;;;;;11.05;2.40;;;10.60;99.90;;;;;;5061863;28;20043;-75
2023/03/25 08:36:57;;;;;;;8.38;2.03;;;11.00;99.90;;;;;;5048695;28;20337;-76
2023/03/25 08:39:58;;;;;;;14.05;2.85;;;10.60;99.90;;;;;;5059516;28;20041;-76
2023/03/25 08:42:30;;;;;;;11.13;2.78;;;11.20;99.90;;;;;;5055483;28;20044;-76
2023/03/25 08:44:56;;;;;;;10.05;2.05;;;10.50;99.90;;;;;;5082305;28;20043;-76
2023/03/25 08:47:21;;;;;;;10.18;2.65;;;10.90;99.90;;;;;;5092688;28;20216;-75
2023/03/25 08:49:47;;;;;;;9.93;2.53;;;11.10;99.90;;;;;;5063447;28;20044;-76
2023/03/25 08:52:20;;;;;;;11.27;2.58;;;11.00;99.90;;;;;;5093375;28;20234;-75
2023/03/25 08:54:46;;;;;;;13.90;2.63;;;11.40;99.90;;;;;;5081643;28;20153;-71
2023/03/25 08:57:11;;;;;;;14.13;3.28;;;11.50;99.90;;;;;;5079522;28;20040;-73
2023/03/25 08:59:37;;;;;;;13.82;3.25;;;11.00;99.90;;;;;;5084623;28;20040;-74
2023/03/25 09:02:03;;;;;;;12.07;2.70;;;11.70;99.90;;;;;;5066649;28;20398;-75
2023/03/25 09:04:29;;;;;;;11.30;2.80;;;12.00;99.90;;;;;;5063872;28;20035;-73
2023/03/25 09:06:55;;;;;;;16.70;3.92;;;11.70;99.90;;;;;;5050182;28;20031;-71
2023/03/25 09:09:22;;;;;;;14.60;3.35;;;11.50;99.90;;;;;;5081907;28;20367;-73
2023/03/25 09:12:13;;;;;;;12.38;3.00;;;10.80;99.90;;;;;;5064528;28;20042;-74
2023/03/25 09:14:45;;;;;;;9.57;2.17;;;11.70;99.90;;;;;;5030051;28;20047;-73
2023/03/25 09:17:17;;;;;;;15.07;3.10;;;10.40;99.90;;;;;;5094330;28;20065;-73
2023/03/25 09:19:43;;;;;;;14.32;3.08;;;11.70;99.90;;;;;;5051595;28;20043;-76
2023/03/25 09:22:08;;;;;;;12.98;2.92;;;11.60;99.90;;;;;;5095366;28;20067;-76
2023/03/25 09:24:37;;;;;;;15.43;3.70;;;11.20;99.90;;;;;;5111328;28;20024;-74
2023/03/25 09:27:07;;;;;;;16.00;2.92;;;11.20;99.90;;;;;;5077142;28;20028;-71
2023/03/25 09:29:33;;;;;;;13.18;2.67;;;11.70;99.90;;;;;;5060185;28;20079;-78
2023/03/25 09:31:59;;;;;;;17.65;2.85;;;11.10;99.90;;;;;;5064659;28;20051;-76
2023/03/25 09:34:26;;;;;;;14.40;2.70;;;12.00;99.90;;;;;;5083224;28;20032;-73
2023/03/25 09:40:24;;;;;;;11.93;2.92;;;12.00;99.90;;;;;;5027643;28;20069;-74
2023/03/25 09:43:10;;;;;;;14.23;2.63;;;12.40;99.90;;;;;;5072589;28;20063;-75
2023/03/25 09:45:43;;;;;;;15.85;2.30;;;12.10;99.90;;;;;;5082567;28;20048;-72
2023/03/25 09:48:30;;;;;;;11.25;2.70;;;13.00;99.90;;;;;;5088349;28;20058;-72
2023/03/25 09:51:14;;;;;;;10.07;2.40;;;13.30;99.90;;;;;;5081408;28;20044;-74
2023/03/25 09:54:03;;;;;;;12.10;2.95;;;13.40;99.90;;;;;;5095653;28;20113;-73
2023/03/25 09:56:35;;;;;;;12.38;2.30;;;12.80;99.90;;;;;;5095907;28;20036;-74
2023/03/25 09:59:13;;;;;;;8.60;2.97;;;13.20;99.90;;;;;;5081071;28;20065;-70
2023/03/25 10:02:08;;;;;;;9.52;2.17;;;12.80;99.90;;;;;;5097635;28;20215;-72
2023/03/25 10:04:48;;;;;;;14.32;2.67;;;12.50;99.90;;;;;;5048528;28;20032;-73
2023/03/25 10:07:29;;;;;;;7.68;2.08;;;12.80;99.90;;;;;;5089732;28;20322;-75
2023/03/25 10:10:25;;;;;;;14.00;2.53;;;12.50;99.90;;;;;;5097857;28;20050;-72
2023/03/25 10:13:15;;;;;;;14.45;2.30;;;12.70;99.90;;;;;;5019886;28;20349;-74
2023/03/25 10:15:52;;;;;;;11.10;1.92;;;13.10;99.90;;;;;;5079728;28;20046;-71
2023/03/25 10:18:23;;;;;;;8.85;2.28;;;13.00;99.90;;;;;;5072095;28;20052;-70
2023/03/25 10:20:59;;;;;;;7.70;1.88;;;12.90;99.90;;;;;;5125967;27;20024;-74
2023/03/25 10:23:36;;;;;;;8.50;2.03;;;12.50;99.90;;;;;;5072338;28;20028;-73
2023/03/25 10:26:43;;;;;;;12.90;2.72;;;12.70;99.90;;;;;;5092558;28;20388;-72
2023/03/25 10:29:17;;;;;;;7.40;2.30;;;13.00;99.90;;;;;;5050108;28;20047;-75
2023/03/25 10:31:55;;;;;;;12.10;2.57;;;13.00;99.90;;;;;;5119460;28;20029;-74
2023/03/25 10:34:31;;;;;;;11.75;2.70;;;13.20;99.90;;;;;;5067645;28;20055;-74
2023/03/25 10:36:59;;;;;;;12.43;2.35;;;13.30;99.90;;;;;;5085532;28;20039;-71
2023/03/25 10:39:42;;;;;;;11.32;2.22;;;13.50;99.90;;;;;;5076496;28;20095;-71
2023/03/25 10:42:38;;;;;;;11.98;2.00;;;13.20;99.90;;;;;;5084213;28;20140;-75
2023/03/25 10:45:13;;;;;;;16.60;2.78;;;13.10;99.90;;;;;;5092109;28;20040;-75
2023/03/25 10:51:53;;;;;;;16.02;2.85;;;13.00;99.90;;;;;;5083434;28;20040;-74
2023/03/25 10:54:22;;;;;;;9.95;2.45;;;13.50;99.90;;;;;;5077089;28;20079;-72
2023/03/25 10:56:55;;;;;;;15.02;2.92;;;13.00;99.90;;;;;;5082892;28;20044;-73
2023/03/25 10:59:46;;;;;;;12.82;2.28;;;13.10;99.90;;;;;;5086916;28;20353;-75
2023/03/25 11:02:30;;;;;;;9.57;2.50;;;12.60;99.90;;;;;;5047868;28;20037;-75
2023/03/25 11:05:00;;;;;;;11.35;2.78;;;12.70;99.90;;;;;;5064877;28;20107;-73
2023/03/25 11:07:36;;;;;;;10.98;2.10;;;12.70;99.90;;;;;;5067471;28;20064;-74
2023/03/25 11:10:14;;;;;;;15.27;4.18;;;12.50;99.90;;;;;;5081606;28;20087;-73
2023/03/25 11:12:45;;;;;;;11.52;3.05;;;12.60;99.90;;;;;;5100713;28;20064;-70
2023/03/25 11:15:28;;;;;;;12.82;2.45;;;12.70;99.90;;;;;;5084222;28;20050;-70
2023/03/25 11:18:03;;;;;;;12.98;2.53;;;12.70;99.90;;;;;;5071973;28;20444;-73
2023/03/25 11:20:46;;;;;;;12.05;2.55;;;13.00;99.90;;;;;;5079716;28;20192;-75
2023/03/25 11:23:36;;;;;;;10.55;2.55;;;12.90;99.90;;;;;;5112851;28;20339;-76
2023/03/25 11:26:07;;;;;;;11.10;2.35;;;13.10;99.90;;;;;;5094463;28;20041;-72
2023/03/25 11:28:38;;;;;;;11.07;2.38;;;13.20;99.90;;;;;;5100394;28;20044;-71
2023/03/25 11:31:19;;;;;;;10.65;2.65;;;13.20;99.90;;;;;;5116538;27;20051;-74
2023/03/25 11:34:07;;;;;;;14.15;2.70;;;13.20;99.90;;;;;;5105429;28;20037;-74
2023/03/25 11:36:45;;;;;;;11.65;2.10;;;13.60;99.90;;;;;;5074586;28;20223;-76
2023/03/25 11:40:18;;;;;;;12.63;2.75;;;13.80;99.90;;;;;;5073196;28;20081;-73
2023/03/25 11:42:52;;;;;;;8.13;2.40;;;13.90;99.90;;;;;;5072735;28;20075;-75
2023/03/25 11:45:44;;;;;;;10.73;2.83;;;13.70;99.90;;;;;;5070524;28;20035;-71
2023/03/25 11:48:34;;;;;;;9.93;2.08;;;14.00;99.90;;;;;;5118144;28;20049;-72
2023/03/25 11:51:04;;;;;;;10.02;2.97;;;13.80;99.90;;;;;;5103198;28;20266;-70
2023/03/25 11:53:32;;;;;;;10.55;2.00;;;13.70;99.90;;;;;;5084562;28;20376;-74
2023/03/25 11:56:12;;;;;;;10.45;2.15;;;13.70;99.90;;;;;;5086032;28;20318;-75
2023/03/25 11:58:49;;;;;;;14.07;2.70;;;13.70;99.90;;;;;;5093838;28;20032;-71
2023/03/25 12:01:46;;;;;;;10.15;2.13;;;13.60;99.90;;;;;;5037330;28;20057;-70
2023/03/25 12:04:23;;;;;;;11.95;2.92;;;14.30;99.90;;;;;;5080928;28;20264;-71
2023/03/25 12:06:56;;;;;;;6.95;2.13;;;14.40;99.90;;;;;;5086380;28;20085;-73
2023/03/25 12:09:27;;;;;;;10.55;2.70;;;14.80;99.90;;;;;;5081254;28;20114;-71
2023/03/25 12:12:31;;;;;;;9.35;2.22;;;14.90;99.90;;;;;;5086320;28;20039;-73
2023/03/25 12:15:36;;;;;;;11.80;2.75;;;14.20;99.90;;;;;;5100310;28;20392;-76
2023/03/25 12:18:33;;;;;;;9.98;2.10;;;14.10;99.90;;;;;;5103110;28;20077;-77
2023/03/25 12:21:05;;;;;;;8.02;1.95;;;14.00;99.90;;;;;;5081720;28;20039;-74
2023/03/25 12:24:07;;;;;;;9.52;2.25;;;13.80;99.90;;;;;;5085686;28;20032;-71
2023/03/25 12:26:50;;;;;;;7.75;2.00;;;14.00;99.90;;;;;;5034889;28;20040;-71
2023/03/25 12:29:31;;;;;;;7.82;2.00;;;13.80;99.90;;;;;;5121048;27;20230;-74
2023/03/25 12:32:34;;;;;;;7.80;2.08;;;14.20;99.90;;;;;;5100910;28;20039;-71
2023/03/25 12:35:25;;;;;;;8.90;1.73;;;13.50;99.90;;;;;;5088091;28;20039;-74
2023/03/25 12:38:25;;;;;;;7.03;1.98;;;13.40;99.90;;;;;;5065089;28;20047;-74
2023/03/25 12:41:21;;;;;;;11.88;2.10;;;13.50;99.90;;;;;;5096429;28;20031;-74
2023/03/25 12:43:58;;;;;;;8.20;1.80;;;13.60;99.90;;;;;;5098682;28;20041;-71
2023/03/25 12:46:39;;;;;;;8.73;2.00;;;13.80;99.90;;;;;;5079695;28;20083;-71
2023/03/25 12:49:26;;;;;;;11.00;1.90;;;13.90;99.90;;;;;;5080589;28;20355;-71
2023/03/25 12:55:51;;;;;;;8.88;2.30;;;14.00;99.90;;;;;;5099077;28;20043;-71
2023/03/25 12:58:55;;;;;;;6.50;1.77;;;13.90;99.90;;;;;;5081407;28;20145;-75
2023/03/25 13:02:11;;;;;;;10.23;1.75;;;13.60;99.90;;;;;;5078972;28;20028;-69
2023/03/25 13:05:12;;;;;;;12.45;2.30;;;13.60;99.90;;;;;;5078253;28;20028;-71
2023/03/25 13:07:57;;;;;;;7.35;1.90;;;13.50;99.90;;;;;;5111083;28;20352;-76
2023/03/25 13:10:38;;;;;;;10.55;2.80;;;13.40;99.90;;;;;;5096874;28;20059;-72
2023/03/25 13:13:43;;;;;;;8.48;2.17;;;13.60;99.90;;;;;;5098243;28;20211;-74
2023/03/25 13:16:28;;;;;;;8.52;2.00;;;13.40;99.90;;;;;;5038374;28;20055;-74
2023/03/25 13:19:35;;;;;;;6.93;1.83;;;11.90;99.90;;;;;;5086881;28;20055;-71
2023/03/25 13:22:35;;;;;;;7.53;1.83;;;12.50;99.90;;;;;;5092183;28;20107;-74
2023/03/25 13:25:26;;;;;;;8.57;2.33;;;12.50;99.90;;;;;;5037914;28;20039;-69
2023/03/25 13:28:17;;;;;;;;;;;12.40;99.90;;;;;;5091137;28;20051;-75
2023/03/25 13:31:02;;;;;;;11.70;2.42;;;12.40;99.90;;;;;;5077731;28;19920;-70
2023/03/25 13:33:54;;;;;;;11.77;2.63;;;12.50;99.90;;;;;;5065319;28;20042;-70
2023/03/25 13:43:30;;;;;;;10.30;2.75;;;12.00;99.90;;;;;;5020040;28;20030;-69
2023/03/25 13:46:44;;;;;;;6.47;1.73;;;12.90;99.90;;;;;;5093827;28;20040;-71
2023/03/25 13:49:29;;;;;;;7.60;2.17;;;12.80;99.90;;;;;;5000560;28;20061;-70
2023/03/25 13:52:00;;;;;;;7.28;1.70;;;12.90;99.90;;;;;;5003058;28;20259;-74
2023/03/25 13:54:51;;;;;;;6.78;2.42;;;12.70;99.90;;;;;;4998512;28;20096;-68
2023/03/25 13:57:40;;;;;;;8.30;2.47;;;12.60;99.90;;;;;;5016422;28;20080;-75
2023/03/25 14:00:09;;;;;;;5.78;2.05;;;12.40;99.90;;;;;;5061895;28;20364;-75
2023/03/25 14:03:10;;;;;;;10.20;1.45;;;12.40;99.90;;;;;;5074545;28;20088;-75
2023/03/25 14:05:43;;;;;;;11.70;2.47;;;12.30;99.90;;;;;;5060422;28;20072;-73